Time;durP1;ratioP1;P1;durP2;ratioP2;P2;SDS_P1;SDS_P2;PMS_P1;PMS_P2;Temp;Humidity;BMP_temperature;BMP_pressure;BME280_temperature;BME280_humidity;BME280_pressure;Samples;Min_cycle;Max_cycle;Signal;HPM_P1;HPM_P2
2022/03/30 00:01:21;;;;;;;5.97;4.30;;;;;;;;;;5726924;24;20179;-91
2022/03/30 00:04:31;;;;;;;8.17;6.13;;;;;;;;;;5731111;25;20211;-90
2022/03/30 00:07:55;;;;;;;;;;;;;;;;;;;;;
2022/03/30 00:10:24;;;;;;;3.97;3.53;;;;;;;;;;5817174;24;20276;-91
2022/03/30 00:12:54;;;;;;;5.17;4.67;;;;;;;;;;5900937;24;20190;-90
2022/03/30 00:15:23;;;;;;;1.57;1.57;;;;;;;;;;5875050;24;20309;-92
2022/03/30 00:17:52;;;;;;;2.53;2.33;;;;;;;;;;5974537;24;20181;-91
2022/03/30 00:40:07;;;;;;;;;;;;;;;;;;;;;
2022/03/30 01:16:25;;;;;;;6.40;4.77;;;;;;;;;;5939124;23;20225;-88
2022/03/30 01:19:02;;;;;;;9.90;5.33;;;;;;;;;;6095587;23;20190;-89
2022/03/30 01:21:32;;;;;;;3.87;3.57;;;;;;;;;;6071438;23;20261;-90
2022/03/30 01:24:01;;;;;;;3.27;3.03;;;;;;;;;;6071357;23;20184;-90
2022/03/30 01:26:30;;;;;;;2.03;1.93;;;;;;;;;;6071613;23;20229;-90
2022/03/30 01:28:58;;;;;;;13.63;6.13;;;;;;;;;;6071453;23;20186;-90
2022/03/30 01:34:13;;;;;;;2.17;1.97;;;;;;;;;;6095682;23;20174;-90
2022/03/30 01:36:43;;;;;;;6.57;4.20;;;;;;;;;;6070884;23;20458;-91
2022/03/30 01:39:12;;;;;;;11.53;6.67;;;;;;;;;;6070603;23;20187;-91
2022/03/30 01:41:40;;;;;;;0.70;0.70;;;;;;;;;;6095491;23;20177;-90
2022/03/30 01:44:09;;;;;;;0.87;0.87;;;;;;;;;;6071151;23;20182;-91
2022/03/30 01:46:39;;;;;;;0.70;0.70;;;;;;;;;;6095366;23;20185;-90
2022/03/30 01:49:08;;;;;;;1.63;1.63;;;;;;;;;;6090296;23;20176;-90
2022/03/30 01:51:36;;;;;;;1.97;1.87;;;;;;;;;;6130526;23;20172;-91
2022/03/30 01:54:06;;;;;;;1.93;1.83;;;;;;;;;;6156271;23;20176;-91
2022/03/30 01:56:34;;;;;;;1.83;1.77;;;;;;;;;;6130419;23;20199;-89
2022/03/30 01:59:03;;;;;;;1.83;1.83;;;;;;;;;;6155291;23;20207;-91
2022/03/30 02:01:31;;;;;;;0.70;0.70;;;;;;;;;;6130537;23;20218;-91
2022/03/30 02:04:00;;;;;;;0.80;0.80;;;;;;;;;;6154857;23;20286;-91
2022/03/30 02:06:29;;;;;;;0.60;0.60;;;;;;;;;;6129909;23;20410;-91
2022/03/30 02:08:57;;;;;;;0.90;0.90;;;;;;;;;;6130272;23;20176;-90
2022/03/30 02:11:27;;;;;;;0.70;0.70;;;;;;;;;;6130406;23;20187;-90
2022/03/30 02:13:56;;;;;;;0.90;0.90;;;;;;;;;;6130242;23;20176;-91
2022/03/30 02:16:25;;;;;;;1.87;1.87;;;;;;;;;;6156321;23;20279;-90
2022/03/30 02:18:54;;;;;;;0.87;0.87;;;;;;;;;;6129908;23;20180;-91
2022/03/30 02:21:24;;;;;;;0.70;0.70;;;;;;;;;;6155145;23;20256;-91
2022/03/30 02:23:52;;;;;;;0.67;0.67;;;;;;;;;;6130160;23;20176;-90
2022/03/30 02:26:21;;;;;;;2.37;2.23;;;;;;;;;;6155919;23;20178;-91
2022/03/30 02:28:51;;;;;;;0.73;0.73;;;;;;;;;;6129979;23;20175;-90
2022/03/30 02:31:20;;;;;;;1.73;1.70;;;;;;;;;;6155269;23;20185;-90
2022/03/30 02:33:48;;;;;;;12.23;3.67;;;;;;;;;;6129606;23;20191;-90
2022/03/30 02:36:17;;;;;;;0.83;0.83;;;;;;;;;;6155718;23;20193;-91
2022/03/30 02:38:47;;;;;;;1.97;1.87;;;;;;;;;;6129699;23;20191;-91
2022/03/30 02:41:15;;;;;;;2.87;2.67;;;;;;;;;;6129912;23;20183;-91
2022/03/30 02:43:43;;;;;;;2.17;2.07;;;;;;;;;;6129250;23;20183;-91
2022/03/30 02:46:13;;;;;;;6.73;6.13;;;;;;;;;;6129829;23;20171;-90
2022/03/30 02:48:42;;;;;;;4.17;3.77;;;;;;;;;;6129607;23;20256;-91
2022/03/30 02:51:10;;;;;;;12.23;3.80;;;;;;;;;;6155617;23;20176;-91
2022/03/30 02:53:39;;;;;;;6.20;3.80;;;;;;;;;;6155742;23;20242;-90
2022/03/30 03:00:08;;;;;;;8.83;5.17;;;;;;;;;;6108966;23;20180;-91
2022/03/30 03:02:38;;;;;;;3.27;2.97;;;;;;;;;;6130523;23;20184;-91
2022/03/30 03:05:07;;;;;;;5.10;3.93;;;;;;;;;;6130357;23;20302;-91
2022/03/30 03:07:35;;;;;;;9.03;3.17;;;;;;;;;;6129811;23;20286;-91
2022/03/30 03:10:04;;;;;;;4.50;4.10;;;;;;;;;;6129441;23;20205;-91
2022/03/30 03:12:33;;;;;;;4.00;3.50;;;;;;;;;;6129314;23;20209;-91
2022/03/30 03:15:01;;;;;;;3.50;3.30;;;;;;;;;;6130240;23;20190;-90
2022/03/30 03:17:29;;;;;;;5.63;3.83;;;;;;;;;;6153960;23;20200;-89
2022/03/30 03:19:59;;;;;;;5.10;4.53;;;;;;;;;;6155230;23;20251;-91
2022/03/30 03:22:28;;;;;;;7.90;2.87;;;;;;;;;;6155095;23;20168;-89
2022/03/30 03:24:57;;;;;;;9.53;2.77;;;;;;;;;;6154708;23;20168;-91
2022/03/30 03:27:25;;;;;;;1.30;1.30;;;;;;;;;;6130038;23;20199;-91
2022/03/30 03:29:54;;;;;;;4.17;3.43;;;;;;;;;;6153743;23;20186;-90
2022/03/30 03:32:22;;;;;;;4.33;3.17;;;;;;;;;;6128933;23;20187;-90
2022/03/30 03:34:51;;;;;;;1.03;1.03;;;;;;;;;;6128922;23;20212;-91
2022/03/30 03:37:21;;;;;;;2.27;2.17;;;;;;;;;;6129019;23;20207;-90
2022/03/30 03:39:49;;;;;;;5.00;4.60;;;;;;;;;;6155019;23;20211;-91
2022/03/30 03:42:18;;;;;;;1.77;1.73;;;;;;;;;;6154555;23;20172;-91
2022/03/30 03:44:46;;;;;;;15.70;4.73;;;;;;;;;;6128983;23;20276;-91
2022/03/30 03:47:14;;;;;;;17.50;6.50;;;;;;;;;;6128611;23;20180;-91
2022/03/30 03:49:44;;;;;;;1.80;1.73;;;;;;;;;;6129077;23;20176;-91
2022/03/30 03:52:12;;;;;;;3.10;2.80;;;;;;;;;;6153417;23;20190;-91
2022/03/30 03:54:42;;;;;;;5.23;4.80;;;;;;;;;;6128707;23;20176;-90
2022/03/30 03:57:11;;;;;;;3.30;3.00;;;;;;;;;;6128576;23;20199;-90
2022/03/30 03:59:39;;;;;;;6.23;4.90;;;;;;;;;;6154466;23;20172;-91
2022/03/30 04:02:07;;;;;;;5.83;4.67;;;;;;;;;;6154722;23;20191;-91
2022/03/30 04:04:37;;;;;;;9.60;4.23;;;;;;;;;;6154718;23;20258;-91
2022/03/30 04:07:06;;;;;;;4.43;2.05;;;;;;;;;;6087452;23;1110320;-91
2022/03/30 04:09:34;;;;;;;2.27;2.17;;;;;;;;;;6131347;23;20179;-91
2022/03/30 04:12:04;;;;;;;2.03;1.90;;;;;;;;;;6132148;23;20177;-91
2022/03/30 04:14:33;;;;;;;0.90;0.90;;;;;;;;;;6132011;23;20175;-91
2022/03/30 04:17:01;;;;;;;2.67;2.47;;;;;;;;;;6156468;23;20203;-90
2022/03/30 04:19:31;;;;;;;2.53;1.83;;;;;;;;;;6131577;23;20176;-90
2022/03/30 04:21:59;;;;;;;1.53;1.43;;;;;;;;;;6157795;23;20172;-91
2022/03/30 04:24:28;;;;;;;4.53;2.30;;;;;;;;;;6131712;23;20175;-90
2022/03/30 04:26:56;;;;;;;2.70;2.60;;;;;;;;;;6131459;23;20222;-91
2022/03/30 04:29:26;;;;;;;1.40;1.37;;;;;;;;;;6157666;23;20164;-91
2022/03/30 04:31:54;;;;;;;2.10;2.00;;;;;;;;;;6131324;23;20177;-91
2022/03/30 04:34:24;;;;;;;1.63;1.63;;;;;;;;;;6131739;23;20218;-91
2022/03/30 04:36:52;;;;;;;6.73;5.70;;;;;;;;;;6131890;23;20219;-91
2022/03/30 04:39:30;;;;;;;0.80;0.80;;;;;;;;;;6132057;23;20182;-90
2022/03/30 04:41:58;;;;;;;2.47;1.67;;;;;;;;;;6156759;23;20182;-90
2022/03/30 04:44:28;;;;;;;5.33;3.73;;;;;;;;;;6157558;23;20164;-90
2022/03/30 04:46:57;;;;;;;4.17;3.50;;;;;;;;;;6131315;23;20267;-90
2022/03/30 04:49:25;;;;;;;5.87;3.43;;;;;;;;;;6131385;23;20183;-91
2022/03/30 04:51:54;;;;;;;1.00;1.00;;;;;;;;;;6155940;23;20219;-89
2022/03/30 04:54:22;;;;;;;13.73;4.40;;;;;;;;;;6131582;23;20176;-90
2022/03/30 04:56:51;;;;;;;11.03;5.60;;;;;;;;;;6157486;23;20190;-91
2022/03/30 04:59:20;;;;;;;8.23;6.33;;;;;;;;;;6131376;23;20175;-91
2022/03/30 05:01:50;;;;;;;5.00;4.47;;;;;;;;;;6131431;23;20244;-91
2022/03/30 05:04:18;;;;;;;17.70;4.40;;;;;;;;;;6155532;23;20196;-91
2022/03/30 05:06:47;;;;;;;7.80;4.67;;;;;;;;;;6133379;23;20249;-90
2022/03/30 05:09:15;;;;;;;4.23;3.77;;;;;;;;;;6156638;23;20180;-89
2022/03/30 05:11:44;;;;;;;5.17;4.67;;;;;;;;;;6131168;23;20216;-91
2022/03/30 05:14:12;;;;;;;6.77;4.37;;;;;;;;;;6157062;23;20172;-91
2022/03/30 05:16:41;;;;;;;2.13;2.03;;;;;;;;;;6156090;23;20183;-90
2022/03/30 05:19:11;;;;;;;4.17;2.87;;;;;;;;;;6131067;23;20185;-91
2022/03/30 05:21:39;;;;;;;3.80;3.37;;;;;;;;;;6131525;23;20176;-89
2022/03/30 05:24:08;;;;;;;6.07;4.80;;;;;;;;;;6130964;23;20185;-89
2022/03/30 05:26:39;;;;;;;2.20;2.00;;;;;;;;;;6131130;23;20175;-90
2022/03/30 05:29:07;;;;;;;1.67;1.57;;;;;;;;;;6131404;23;20179;-90
2022/03/30 05:31:36;;;;;;;3.00;2.77;;;;;;;;;;6157096;23;20175;-90
2022/03/30 05:34:05;;;;;;;8.40;3.63;;;;;;;;;;6156911;23;20176;-90
2022/03/30 05:36:35;;;;;;;2.97;2.77;;;;;;;;;;6131238;23;20181;-90
2022/03/30 05:39:03;;;;;;;3.63;3.33;;;;;;;;;;6131496;23;20270;-89
2022/03/30 05:44:15;;;;;;;5.30;1.93;;;;;;;;;;6156367;23;20179;-90
2022/03/30 05:46:44;;;;;;;9.07;3.00;;;;;;;;;;6157147;23;20178;-90
2022/03/30 05:49:12;;;;;;;2.00;1.90;;;;;;;;;;6130625;23;20177;-90
2022/03/30 05:51:45;;;;;;;3.80;3.43;;;;;;;;;;6157050;23;20178;-90
2022/03/30 05:54:14;;;;;;;7.43;3.83;;;;;;;;;;6131619;23;20188;-88
2022/03/30 05:59:31;;;;;;;1.53;1.53;;;;;;;;;;6131475;23;20182;-86
2022/03/30 06:02:00;;;;;;;1.97;1.87;;;;;;;;;;6154974;23;20174;-86
2022/03/30 06:04:30;;;;;;;1.27;1.20;;;;;;;;;;6130768;23;20226;-86
2022/03/30 06:07:00;;;;;;;1.67;1.57;;;;;;;;;;6154776;23;20218;-86
2022/03/30 06:09:29;;;;;;;1.60;1.30;;;;;;;;;;6157083;23;20182;-86
2022/03/30 06:12:17;;;;;;;1.37;1.27;;;;;;;;;;6130836;23;20180;-86
2022/03/30 06:14:46;;;;;;;1.30;1.30;;;;;;;;;;6156414;23;20177;-86
2022/03/30 06:17:17;;;;;;;1.07;0.97;;;;;;;;;;6130452;23;20191;-86
2022/03/30 06:19:48;;;;;;;3.57;1.83;;;;;;;;;;6154790;23;20211;-85
2022/03/30 06:22:18;;;;;;;1.57;1.47;;;;;;;;;;6156722;23;20172;-87
2022/03/30 06:24:47;;;;;;;2.30;1.67;;;;;;;;;;6155512;23;20220;-87
2022/03/30 06:27:19;;;;;;;1.57;1.47;;;;;;;;;;6130591;23;20603;-86
2022/03/30 06:29:53;;;;;;;1.57;1.47;;;;;;;;;;6155959;23;20181;-87
2022/03/30 06:32:21;;;;;;;6.63;2.87;;;;;;;;;;6134649;23;20180;-87
2022/03/30 06:34:50;;;;;;;1.27;1.17;;;;;;;;;;6139487;23;20184;-87
2022/03/30 06:37:20;;;;;;;1.53;1.43;;;;;;;;;;6138893;23;20188;-87
2022/03/30 06:39:49;;;;;;;1.20;1.20;;;;;;;;;;6139303;23;20178;-88
2022/03/30 06:57:38;;;;;;;1.50;1.40;;;;;;;;;;5870550;23;20182;-89
2022/03/30 07:00:08;;;;;;;1.93;1.20;;;;;;;;;;6140673;23;20256;-89
2022/03/30 07:02:37;;;;;;;4.37;2.47;;;;;;;;;;6142943;23;20175;-89
2022/03/30 07:13:51;;;;;;;2.13;1.60;;;;;;;;;;6112879;23;20187;-90
2022/03/30 07:16:19;;;;;;;1.33;1.23;;;;;;;;;;6135365;23;20178;-90
2022/03/30 07:19:18;;;;;;;1.43;1.33;;;;;;;;;;6135119;23;20230;-90
2022/03/30 07:21:54;;;;;;;1.63;1.40;;;;;;;;;;6136622;23;20185;-86
2022/03/30 07:35:24;;;;;;;2.10;1.63;;;;;;;;;;6131180;23;20172;-88
2022/03/30 07:37:52;;;;;;;1.50;1.40;;;;;;;;;;6134626;23;20273;-89
2022/03/30 07:49:07;;;;;;;1.70;1.10;;;;;;;;;;5901784;24;20268;-90
2022/03/30 08:10:37;;;;;;;2.43;1.87;;;;;;;;;;5874273;24;20184;-87
2022/03/30 08:13:12;;;;;;;1.70;1.60;;;;;;;;;;5902346;24;20268;-88
2022/03/30 08:16:03;;;;;;;1.13;1.13;;;;;;;;;;5923912;24;20186;-88
2022/03/30 08:18:37;;;;;;;1.57;1.47;;;;;;;;;;6121793;23;20202;-89
2022/03/30 08:24:50;;;;;;;;;;;;;;;;;;;;;
2022/03/30 08:27:47;;;;;;;1.27;1.27;;;;;;;;;;6131282;23;20395;-89
2022/03/30 08:30:19;;;;;;;1.30;1.20;;;;;;;;;;6129265;23;20270;-89
2022/03/30 08:32:51;;;;;;;3.00;1.23;;;;;;;;;;6129175;23;20269;-87
2022/03/30 08:35:21;;;;;;;6.13;1.93;;;;;;;;;;6154579;23;20259;-87
2022/03/30 08:37:50;;;;;;;2.10;1.90;;;;;;;;;;6129956;23;20266;-87
2022/03/30 08:40:19;;;;;;;1.60;1.50;;;;;;;;;;6154766;23;20201;-88
2022/03/30 08:42:50;;;;;;;1.30;1.30;;;;;;;;;;6129514;23;20177;-88
2022/03/30 08:49:10;;;;;;;2.80;2.40;;;;;;;;;;6144529;23;20193;-87
2022/03/30 08:51:49;;;;;;;1.63;1.53;;;;;;;;;;6128288;23;20188;-87
2022/03/30 08:54:25;;;;;;;3.93;2.33;;;;;;;;;;6129390;23;20184;-87
2022/03/30 08:57:07;;;;;;;1.10;1.10;;;;;;;;;;6128888;23;20186;-87
2022/03/30 09:00:09;;;;;;;2.20;1.43;;;;;;;;;;6153801;23;20276;-90
2022/03/30 09:02:47;;;;;;;1.27;1.17;;;;;;;;;;6153497;23;20182;-86
2022/03/30 09:05:19;;;;;;;2.50;1.63;;;;;;;;;;6129927;23;20184;-87
2022/03/30 09:07:54;;;;;;;2.60;1.87;;;;;;;;;;6154765;23;20259;-87
2022/03/30 09:10:31;;;;;;;6.13;2.00;;;;;;;;;;6153696;23;20177;-86
2022/03/30 09:13:07;;;;;;;1.97;1.57;;;;;;;;;;6153504;23;20179;-85
2022/03/30 09:15:54;;;;;;;1.90;1.40;;;;;;;;;;6128366;23;20324;-84
2022/03/30 09:18:23;;;;;;;1.90;1.70;;;;;;;;;;6129942;23;20177;-86
2022/03/30 09:20:55;;;;;;;4.13;1.70;;;;;;;;;;6129647;23;20262;-83
2022/03/30 09:23:26;;;;;;;1.53;1.30;;;;;;;;;;6130268;23;20178;-84
2022/03/30 09:26:03;;;;;;;1.40;1.30;;;;;;;;;;6128736;23;20237;-84
2022/03/30 09:28:34;;;;;;;1.20;1.20;;;;;;;;;;6129422;23;20190;-85
2022/03/30 09:31:19;;;;;;;1.57;1.47;;;;;;;;;;6155536;23;20168;-95
2022/03/30 09:34:00;;;;;;;1.27;1.20;;;;;;;;;;6153693;23;20227;-87
2022/03/30 09:36:30;;;;;;;1.20;1.20;;;;;;;;;;6155084;23;20271;-88
2022/03/30 09:38:59;;;;;;;1.00;1.00;;;;;;;;;;6130316;23;20205;-89
2022/03/30 09:42:04;;;;;;;1.07;1.07;;;;;;;;;;6132363;23;20279;-86
2022/03/30 09:44:45;;;;;;;1.00;0.83;;;;;;;;;;6108129;23;20179;-89
2022/03/30 09:47:17;;;;;;;1.00;0.90;;;;;;;;;;6129961;23;20183;-88
2022/03/30 09:49:50;;;;;;;1.07;1.07;;;;;;;;;;6129169;23;20206;-89
2022/03/30 09:52:22;;;;;;;1.77;1.50;;;;;;;;;;6153477;23;20182;-88
2022/03/30 09:54:59;;;;;;;1.20;1.20;;;;;;;;;;6129922;23;20183;-87
2022/03/30 09:57:29;;;;;;;3.53;2.03;;;;;;;;;;6129003;23;20190;-89
2022/03/30 10:00:03;;;;;;;1.63;1.20;;;;;;;;;;6128478;23;20283;-88
2022/03/30 10:02:34;;;;;;;0.90;0.90;;;;;;;;;;6128623;23;20183;-89
2022/03/30 10:05:06;;;;;;;1.07;1.00;;;;;;;;;;6129109;23;20283;-88
2022/03/30 10:07:38;;;;;;;2.00;1.23;;;;;;;;;;6153317;23;20238;-88
2022/03/30 10:10:10;;;;;;;1.50;1.40;;;;;;;;;;6127154;23;20313;-86
2022/03/30 10:12:39;;;;;;;1.00;1.00;;;;;;;;;;6126373;23;20186;-84
2022/03/30 10:15:17;;;;;;;1.37;1.27;;;;;;;;;;6128506;23;20187;-86
2022/03/30 10:17:47;;;;;;;1.23;1.20;;;;;;;;;;6128777;23;20175;-86
2022/03/30 10:20:16;;;;;;;1.40;1.30;;;;;;;;;;6128847;23;20199;-86
2022/03/30 10:23:05;;;;;;;0.77;0.77;;;;;;;;;;6129506;23;20180;-87
2022/03/30 10:26:03;;;;;;;0.60;0.60;;;;;;;;;;6129390;23;20176;-87
2022/03/30 10:28:45;;;;;;;1.23;1.23;;;;;;;;;;6108763;23;20175;-87
2022/03/30 10:31:14;;;;;;;1.00;1.00;;;;;;;;;;6128821;23;20174;-86
2022/03/30 10:33:46;;;;;;;0.90;0.90;;;;;;;;;;6154336;23;20171;-86
2022/03/30 10:36:25;;;;;;;0.80;0.80;;;;;;;;;;6128735;23;20183;-87
2022/03/30 10:39:11;;;;;;;1.37;1.20;;;;;;;;;;6155202;23;20175;-85
2022/03/30 10:42:06;;;;;;;2.70;1.10;;;;;;;;;;6154534;23;20175;-85
2022/03/30 10:44:41;;;;;;;1.47;1.33;;;;;;;;;;6130435;23;20179;-87
2022/03/30 10:47:14;;;;;;;2.13;1.87;;;;;;;;;;6128302;23;20193;-86
2022/03/30 10:49:48;;;;;;;1.23;0.90;;;;;;;;;;6155145;23;20155;-86
2022/03/30 10:52:26;;;;;;;2.03;1.23;;;;;;;;;;6128987;23;20267;-85
2022/03/30 10:55:10;;;;;;;1.03;1.03;;;;;;;;;;6129010;23;20176;-86
2022/03/30 10:57:45;;;;;;;2.20;1.50;;;;;;;;;;6129366;23;20179;-86
2022/03/30 11:00:18;;;;;;;1.40;1.30;;;;;;;;;;6128858;23;20286;-86
2022/03/30 11:02:49;;;;;;;2.20;1.67;;;;;;;;;;6129548;23;20183;-87
2022/03/30 11:05:28;;;;;;;0.93;0.93;;;;;;;;;;6128995;23;20210;-86
2022/03/30 11:08:01;;;;;;;2.53;1.30;;;;;;;;;;6145135;23;20552;-86
2022/03/30 11:10:31;;;;;;;1.70;1.43;;;;;;;;;;6155167;23;20196;-86
2022/03/30 11:13:02;;;;;;;6.00;1.87;;;;;;;;;;6129390;23;20189;-87
2022/03/30 11:15:31;;;;;;;0.97;0.97;;;;;;;;;;6155366;23;20168;-86
2022/03/30 11:18:18;;;;;;;1.13;1.13;;;;;;;;;;6129368;23;20175;-86
2022/03/30 11:21:07;;;;;;;2.03;1.00;;;;;;;;;;6127860;23;20191;-86
2022/03/30 11:23:37;;;;;;;3.30;1.37;;;;;;;;;;6128652;23;20180;-86
2022/03/30 11:26:06;;;;;;;1.00;1.00;;;;;;;;;;6129092;23;20187;-86
2022/03/30 11:28:36;;;;;;;1.00;1.00;;;;;;;;;;6129284;23;20244;-86
2022/03/30 11:31:05;;;;;;;1.67;0.97;;;;;;;;;;6153360;23;20172;-87
2022/03/30 11:33:35;;;;;;;0.80;0.80;;;;;;;;;;6129079;23;20175;-86
2022/03/30 11:36:04;;;;;;;4.37;1.53;;;;;;;;;;6129287;23;20254;-86
2022/03/30 11:38:37;;;;;;;5.20;1.23;;;;;;;;;;6129307;23;20180;-86
2022/03/30 11:41:09;;;;;;;1.47;1.37;;;;;;;;;;6128560;23;20198;-87
2022/03/30 11:46:24;;;;;;;1.40;1.30;;;;;;;;;;6127577;23;20179;-87
2022/03/30 11:48:53;;;;;;;2.43;1.17;;;;;;;;;;6129073;23;20376;-86
2022/03/30 11:51:26;;;;;;;1.00;1.00;;;;;;;;;;6129420;23;20207;-86
2022/03/30 11:54:09;;;;;;;2.27;1.03;;;;;;;;;;6129536;23;20182;-86
2022/03/30 11:56:42;;;;;;;2.70;2.23;;;;;;;;;;6128925;23;20180;-86
2022/03/30 11:59:11;;;;;;;0.90;0.90;;;;;;;;;;6128790;23;20184;-86
2022/03/30 12:01:44;;;;;;;1.90;1.27;;;;;;;;;;6128846;23;20203;-87
2022/03/30 12:04:14;;;;;;;2.70;1.50;;;;;;;;;;6128794;23;20195;-87
2022/03/30 12:06:47;;;;;;;1.00;1.00;;;;;;;;;;6129752;23;20250;-87
2022/03/30 12:09:17;;;;;;;1.20;1.00;;;;;;;;;;6154102;23;20199;-86
2022/03/30 12:11:49;;;;;;;1.20;1.17;;;;;;;;;;6129595;23;20176;-88
2022/03/30 12:14:25;;;;;;;1.90;1.40;;;;;;;;;;6129261;23;20172;-86
2022/03/30 12:16:54;;;;;;;0.60;0.60;;;;;;;;;;6129293;23;20202;-87
2022/03/30 12:19:23;;;;;;;2.13;1.40;;;;;;;;;;6129552;23;20210;-86
2022/03/30 12:21:52;;;;;;;0.73;0.73;;;;;;;;;;6129682;23;20187;-86
2022/03/30 12:24:22;;;;;;;1.53;1.07;;;;;;;;;;6130089;23;20214;-87
2022/03/30 12:27:00;;;;;;;1.20;1.20;;;;;;;;;;6156968;23;20202;-86
2022/03/30 12:29:37;;;;;;;1.23;1.13;;;;;;;;;;6157156;23;20171;-86
2022/03/30 12:32:10;;;;;;;1.47;1.37;;;;;;;;;;6131494;23;20172;-87
2022/03/30 12:34:40;;;;;;;1.20;1.10;;;;;;;;;;6131457;23;20184;-87
2022/03/30 12:37:09;;;;;;;1.63;1.53;;;;;;;;;;6130360;23;20188;-87
2022/03/30 12:39:40;;;;;;;0.80;0.80;;;;;;;;;;6130309;23;20180;-87
2022/03/30 12:42:11;;;;;;;1.50;1.30;;;;;;;;;;6131217;23;20204;-87
2022/03/30 12:44:40;;;;;;;1.20;1.10;;;;;;;;;;6157422;23;20178;-87
2022/03/30 12:47:16;;;;;;;2.33;1.03;;;;;;;;;;6131672;23;20238;-87
2022/03/30 12:49:45;;;;;;;1.57;1.30;;;;;;;;;;6131488;23;20190;-88
2022/03/30 12:52:15;;;;;;;2.00;1.13;;;;;;;;;;6156359;23;20172;-85
2022/03/30 12:54:44;;;;;;;0.97;0.97;;;;;;;;;;6132209;23;20180;-87
2022/03/30 12:57:15;;;;;;;3.60;2.00;;;;;;;;;;6132428;23;20266;-86
2022/03/30 12:59:44;;;;;;;1.40;1.30;;;;;;;;;;6132227;23;20235;-87
2022/03/30 13:02:20;;;;;;;0.70;0.70;;;;;;;;;;6132181;23;20202;-87
2022/03/30 13:04:50;;;;;;;1.30;1.20;;;;;;;;;;6132439;23;20202;-88
2022/03/30 13:07:22;;;;;;;2.83;1.93;;;;;;;;;;6131488;23;20212;-87
2022/03/30 13:10:05;;;;;;;0.90;0.90;;;;;;;;;;6132351;23;20184;-88
2022/03/30 13:12:39;;;;;;;1.27;0.90;;;;;;;;;;6132868;23;20188;-88
2022/03/30 13:15:09;;;;;;;3.63;2.00;;;;;;;;;;6132114;23;20195;-88
2022/03/30 13:17:54;;;;;;;1.13;1.13;;;;;;;;;;6156658;23;20175;-87
2022/03/30 13:20:23;;;;;;;2.00;1.20;;;;;;;;;;6131829;23;20234;-88
2022/03/30 13:22:52;;;;;;;3.10;2.80;;;;;;;;;;6132230;23;20198;-88
2022/03/30 13:25:32;;;;;;;2.00;1.60;;;;;;;;;;6156226;23;20179;-84
2022/03/30 13:28:06;;;;;;;1.47;1.37;;;;;;;;;;6131542;23;20203;-88
2022/03/30 13:30:37;;;;;;;3.97;1.97;;;;;;;;;;6132326;23;20175;-89
2022/03/30 13:33:05;;;;;;;0.93;0.93;;;;;;;;;;6132296;23;20176;-89
2022/03/30 13:35:35;;;;;;;1.80;1.23;;;;;;;;;;6131955;23;20208;-87
2022/03/30 13:38:04;;;;;;;4.23;1.30;;;;;;;;;;6132080;23;20280;-87
2022/03/30 13:40:33;;;;;;;1.70;1.60;;;;;;;;;;6132305;23;20180;-87
2022/03/30 13:43:04;;;;;;;1.50;1.40;;;;;;;;;;6131590;23;20199;-87
2022/03/30 13:45:33;;;;;;;1.40;1.30;;;;;;;;;;6132247;23;20247;-88
2022/03/30 13:48:03;;;;;;;8.00;2.37;;;;;;;;;;6131711;23;20182;-87
2022/03/30 13:50:32;;;;;;;7.30;3.50;;;;;;;;;;6131400;23;20180;-87
2022/03/30 13:53:03;;;;;;;4.27;1.83;;;;;;;;;;6131964;23;20172;-88
2022/03/30 13:55:33;;;;;;;3.33;1.80;;;;;;;;;;6132237;23;20211;-88
2022/03/30 13:58:04;;;;;;;5.20;2.00;;;;;;;;;;6156328;23;20227;-87
2022/03/30 14:00:42;;;;;;;1.57;1.47;;;;;;;;;;6127927;23;20184;-87
2022/03/30 14:03:11;;;;;;;1.73;1.63;;;;;;;;;;6131361;23;20227;-87
2022/03/30 14:05:40;;;;;;;2.40;1.47;;;;;;;;;;6131749;23;20219;-86
2022/03/30 14:08:09;;;;;;;1.70;1.60;;;;;;;;;;6133921;23;20242;-87
2022/03/30 14:10:38;;;;;;;2.80;1.70;;;;;;;;;;6155844;23;20184;-87
2022/03/30 14:13:10;;;;;;;2.03;1.83;;;;;;;;;;6154533;23;20176;-87
2022/03/30 14:15:41;;;;;;;1.70;1.60;;;;;;;;;;6129458;23;20179;-88
2022/03/30 14:18:09;;;;;;;0.90;0.90;;;;;;;;;;6130575;23;20243;-88
2022/03/30 14:20:40;;;;;;;1.60;1.50;;;;;;;;;;6155495;23;20172;-89
2022/03/30 14:23:09;;;;;;;2.10;1.73;;;;;;;;;;6154527;23;20230;-87
2022/03/30 14:25:41;;;;;;;1.43;1.33;;;;;;;;;;6130788;23;20180;-88
2022/03/30 14:28:10;;;;;;;1.80;1.63;;;;;;;;;;6130359;23;20203;-88
2022/03/30 14:30:41;;;;;;;3.53;1.67;;;;;;;;;;6130760;23;20182;-87
2022/03/30 14:33:10;;;;;;;2.77;1.30;;;;;;;;;;6130467;23;20259;-88
2022/03/30 14:35:40;;;;;;;1.43;1.33;;;;;;;;;;6129485;23;20179;-88
2022/03/30 14:38:10;;;;;;;1.40;1.30;;;;;;;;;;6129385;23;20255;-88
2022/03/30 14:40:39;;;;;;;2.47;1.90;;;;;;;;;;6130172;23;20189;-88
2022/03/30 14:43:08;;;;;;;3.77;2.17;;;;;;;;;;6129912;23;20199;-87
2022/03/30 14:45:37;;;;;;;1.63;1.53;;;;;;;;;;6129702;23;20184;-87
2022/03/30 14:48:09;;;;;;;3.53;1.97;;;;;;;;;;6129928;23;20288;-87
2022/03/30 14:50:38;;;;;;;1.87;1.77;;;;;;;;;;6130303;23;20230;-89
2022/03/30 14:53:07;;;;;;;1.80;1.40;;;;;;;;;;6130992;23;20172;-87
2022/03/30 14:55:36;;;;;;;1.53;1.47;;;;;;;;;;6130093;23;20254;-85
2022/03/30 14:58:05;;;;;;;5.83;1.87;;;;;;;;;;6129301;23;20270;-88
2022/03/30 15:00:35;;;;;;;1.50;1.37;;;;;;;;;;6156117;23;20171;-87
2022/03/30 15:03:04;;;;;;;1.77;1.10;;;;;;;;;;6127588;23;20221;-86
2022/03/30 15:05:35;;;;;;;1.53;1.43;;;;;;;;;;6128791;23;20299;-87
2022/03/30 15:08:04;;;;;;;1.57;1.47;;;;;;;;;;6129687;23;20246;-87
2022/03/30 15:10:34;;;;;;;3.17;1.80;;;;;;;;;;6154098;23;20270;-87
2022/03/30 15:13:03;;;;;;;2.93;1.60;;;;;;;;;;6129436;23;20286;-86
2022/03/30 15:15:33;;;;;;;2.03;1.83;;;;;;;;;;6155066;23;20171;-87
2022/03/30 15:18:04;;;;;;;1.67;1.33;;;;;;;;;;6128448;23;20179;-87
2022/03/30 15:20:34;;;;;;;1.77;1.30;;;;;;;;;;6153681;23;20180;-87
2022/03/30 15:23:04;;;;;;;5.00;1.67;;;;;;;;;;6128463;23;20227;-85
2022/03/30 15:25:38;;;;;;;1.53;1.43;;;;;;;;;;6155565;23;20167;-87
2022/03/30 15:28:07;;;;;;;1.87;1.17;;;;;;;;;;6153297;23;20249;-87
2022/03/30 15:30:36;;;;;;;3.43;2.10;;;;;;;;;;6129356;23;20183;-87
2022/03/30 15:33:04;;;;;;;2.97;2.00;;;;;;;;;;6127846;23;20179;-87
2022/03/30 15:35:34;;;;;;;2.37;1.00;;;;;;;;;;6129245;23;20186;-88
2022/03/30 15:38:06;;;;;;;1.17;1.10;;;;;;;;;;6128269;23;20179;-87
2022/03/30 15:40:35;;;;;;;5.83;2.40;;;;;;;;;;6128395;23;20242;-88
2022/03/30 15:43:04;;;;;;;1.53;1.43;;;;;;;;;;6153855;23;20202;-90
2022/03/30 15:45:34;;;;;;;1.80;1.53;;;;;;;;;;6129050;23;20183;-89
2022/03/30 15:48:07;;;;;;;1.97;1.50;;;;;;;;;;6129530;23;20175;-89
2022/03/30 15:50:38;;;;;;;2.10;1.90;;;;;;;;;;6130379;23;20175;-89
2022/03/30 15:53:09;;;;;;;0.90;0.90;;;;;;;;;;6155883;23;20172;-89
2022/03/30 15:55:41;;;;;;;2.40;1.70;;;;;;;;;;6156415;23;20179;-89
2022/03/30 15:58:10;;;;;;;6.90;1.90;;;;;;;;;;6154004;23;20266;-89
2022/03/30 16:00:39;;;;;;;1.93;1.63;;;;;;;;;;6131791;23;20176;-89
2022/03/30 16:03:07;;;;;;;1.83;1.73;;;;;;;;;;6131972;23;20242;-89
2022/03/30 16:05:37;;;;;;;1.40;1.30;;;;;;;;;;6132856;23;20205;-90
2022/03/30 16:13:44;;;;;;;1.00;1.00;;;;;;;;;;6132720;23;20179;-90
2022/03/30 16:16:13;;;;;;;1.93;1.53;;;;;;;;;;6158048;23;20202;-89
2022/03/30 16:18:41;;;;;;;1.73;1.63;;;;;;;;;;6131654;23;20188;-89
2022/03/30 16:21:10;;;;;;;3.73;1.90;;;;;;;;;;6158459;23;20257;-89
2022/03/30 16:23:41;;;;;;;1.50;1.40;;;;;;;;;;6156870;23;20272;-90
2022/03/30 16:26:10;;;;;;;8.37;1.83;;;;;;;;;;6132192;23;20186;-89
2022/03/30 16:28:38;;;;;;;2.53;1.67;;;;;;;;;;6132400;23;20207;-90
2022/03/30 16:31:07;;;;;;;2.90;1.90;;;;;;;;;;6158688;23;20178;-90
2022/03/30 16:33:36;;;;;;;1.30;1.30;;;;;;;;;;6158658;23;20163;-90
2022/03/30 16:36:06;;;;;;;5.00;1.53;;;;;;;;;;6131824;23;20269;-90
2022/03/30 16:38:34;;;;;;;1.30;1.30;;;;;;;;;;6131961;23;20181;-90
2022/03/30 16:41:04;;;;;;;2.90;1.33;;;;;;;;;;6132032;23;20260;-90
2022/03/30 16:43:33;;;;;;;4.63;3.30;;;;;;;;;;6132154;23;20205;-90
2022/03/30 16:46:02;;;;;;;1.63;1.47;;;;;;;;;;6158282;23;20173;-90
2022/03/30 16:48:49;;;;;;;2.73;1.40;;;;;;;;;;6132334;23;20180;-89
2022/03/30 16:51:18;;;;;;;6.07;1.43;;;;;;;;;;6131934;23;20187;-90
2022/03/30 16:53:46;;;;;;;2.70;1.60;;;;;;;;;;6156611;23;20224;-90
2022/03/30 16:56:16;;;;;;;1.67;1.57;;;;;;;;;;6132366;23;20389;-90
2022/03/30 16:58:47;;;;;;;2.30;1.67;;;;;;;;;;6131474;23;20281;-90
2022/03/30 17:01:16;;;;;;;3.47;1.87;;;;;;;;;;6131554;23;20186;-90
2022/03/30 17:03:45;;;;;;;3.27;1.90;;;;;;;;;;6157371;23;20201;-90
2022/03/30 17:06:19;;;;;;;3.27;1.77;;;;;;;;;;6157539;23;20167;-90
2022/03/30 17:11:36;;;;;;;7.17;2.60;;;;;;;;;;6156761;23;20174;-90
2022/03/30 17:14:05;;;;;;;5.20;1.73;;;;;;;;;;6156193;23;20260;-90
2022/03/30 17:16:34;;;;;;;1.40;1.33;;;;;;;;;;6131372;23;20202;-90
2022/03/30 17:19:03;;;;;;;1.60;1.50;;;;;;;;;;6130985;23;20180;-90
2022/03/30 17:21:38;;;;;;;7.10;1.83;;;;;;;;;;6131745;23;20244;-90
2022/03/30 17:24:08;;;;;;;3.53;1.60;;;;;;;;;;6157513;23;20194;-89
2022/03/30 17:26:38;;;;;;;2.87;1.80;;;;;;;;;;6131681;23;20209;-90
2022/03/30 17:29:07;;;;;;;15.63;1.93;;;;;;;;;;6131243;23;20179;-90
2022/03/30 17:31:35;;;;;;;1.80;1.70;;;;;;;;;;6131449;23;20204;-90
2022/03/30 17:34:04;;;;;;;3.40;1.53;;;;;;;;;;6131579;23;20175;-91
2022/03/30 17:36:34;;;;;;;4.90;1.30;;;;;;;;;;6157050;23;20175;-90
2022/03/30 17:39:04;;;;;;;1.87;1.43;;;;;;;;;;6131831;23;20184;-90